Aérodrome :
LOGIN :

S'inscrire | Disclaimer

   EN    FR    IT 

 










Légende :    VFR   VFR Marginal   IFR   IFR Intensif   IFR Très Intensif
Visi : 
Plafond : 
>= 8 km
>= 3000ft
5 à 8 km
1000 à 3000 ft
1500m à 5 km
500 à 1000 ft
800 à 1500m
200 à 500 ft
< 800m
< 200 ft
Symboles :   Orages  Brouillard  Fortes neiges  Fortes précipitations  Vent > 20 kt
SIGMETs :   Divers  Orages  Givrage  Turbulence  Onde Orograph.  Cendres Volcan.







- Altitude de l'aérodrome : 160 ft
- Code IATA : FMO


EDDG - Münster Osnabrück Int.

DERNIER METAR :
  • 222020Z 00000KT CAVOK 14/12 Q1021 NOSIG

METARs EXPIRÉS :
  • 221950Z 14002KT CAVOK 14/13 Q1021 NOSIG
  • 221920Z VRB01KT CAVOK 14/12 Q1021 NOSIG
  • 221850Z 00000KT CAVOK 14/12 Q1021 NOSIG
  • 221820Z 14002KT CAVOK 14/12 Q1021 NOSIG
  • 221750Z 15002KT CAVOK 14/12 Q1021 NOSIG

TAF TAF EDDG
Valide du 22 à 18h jusqu'au 23 à 18h UTC


221700Z 2218/2318 29003KT 9999 FEW030
BECMG 2300/2303 3000 BR
TEMPO 2302/2309 1200 BR BKN004
PROB30
TEMPO 2302/2308 0500 FG BKN001
BECMG 2309/2311 36005KT 9999
Pas de NOTAMs connus pour ce terrain.



MET'MAP, la Météo Aéronautique d'un coup d'oeil ! - Copyright ORBIFLY Décembre 2007 - Disclaimer

ORBIFLY MET'MAP TEAM :

Programmation & Développement : Alexandra Zaïnal
Conception & Développement : Baudouin d'Aumeries
Co-Programmation & Développement : Marc-Olivier Méhu
Soutien technique & logistique : Manuel Goepfert

Contact : metmap@orbifly.com




SOURCES & CREDITS :

   NOAA